createdAt,value
2019-01-03T00:00:32.375Z,-2.2
2019-01-03T00:01:32.269Z,-2.2
2019-01-03T00:02:32.590Z,-2.2
2019-01-03T00:03:32.713Z,-2.3
2019-01-03T00:04:32.623Z,-2.3
2019-01-03T00:05:32.527Z,-2.2
2019-01-03T00:06:32.482Z,-2.2
2019-01-03T00:07:32.397Z,-2.2
2019-01-03T00:08:32.309Z,-2.2
2019-01-03T00:09:32.234Z,-2.3
2019-01-03T00:10:32.136Z,-2.3
2019-01-03T00:11:32.038Z,-2.3
2019-01-03T00:12:32.379Z,-2.3
2019-01-03T00:13:32.299Z,-2.3
2019-01-03T00:14:32.201Z,-2.3
2019-01-03T00:15:32.113Z,-2.3
2019-01-03T00:16:32.035Z,-2.3
2019-01-03T00:17:31.955Z,-2.3
2019-01-03T00:18:31.877Z,-2.3
2019-01-03T00:19:31.779Z,-2.3
2019-01-03T00:20:31.703Z,-2.3
2019-01-03T00:21:31.615Z,-2.3
2019-01-03T00:22:31.965Z,-2.4
2019-01-03T00:23:31.857Z,-2.4
2019-01-03T00:24:31.759Z,-2.4
2019-01-03T00:25:31.663Z,-2.4
2019-01-03T00:26:31.584Z,-2.4
2019-01-03T00:27:31.498Z,-2.4
2019-01-03T00:28:36.559Z,-2.4
2019-01-03T00:29:36.469Z,-2.4
2019-01-03T00:30:36.357Z,-2.4
2019-01-03T00:31:36.273Z,-2.4
2019-01-03T00:32:36.594Z,-2.4
2019-01-03T00:33:36.511Z,-2.4
2019-01-03T00:42:38.029Z,-1.7
2019-01-03T00:43:37.922Z,-1.7
2019-01-03T00:44:37.813Z,-1.8
2019-01-03T00:45:37.714Z,-1.8
2019-01-03T00:46:37.621Z,-1.9
2019-01-03T00:47:37.505Z,-1.9
2019-01-03T00:48:37.409Z,-1.9
2019-01-03T00:49:37.301Z,-1.9
2019-01-03T00:50:37.192Z,-2
2019-01-03T00:51:37.090Z,-2
2019-01-03T00:52:37.434Z,-2.1
2019-01-03T00:53:37.389Z,-2.1
2019-01-03T00:54:37.270Z,-2.1
2019-01-03T01:02:35.756Z,-1.7
2019-01-03T01:03:38.555Z,-1.6
2019-01-03T01:04:38.447Z,-1.7
2019-01-03T01:05:38.342Z,-1.8
2019-01-03T01:06:38.249Z,-1.8
2019-01-03T01:07:38.146Z,-1.8
2019-01-03T01:08:38.055Z,-1.8
2019-01-03T01:09:37.949Z,-1.9
2019-01-03T01:10:37.840Z,-1.9
2019-01-03T01:11:40.748Z,-1.9
2019-01-03T01:12:41.071Z,-2
2019-01-03T01:13:40.985Z,-2
2019-01-03T01:14:40.874Z,-2
2019-01-03T01:15:40.783Z,-2
2019-01-03T01:16:40.683Z,-2
2019-01-03T01:17:40.608Z,-2
2019-01-03T01:18:40.562Z,-2.1
2019-01-03T01:19:40.683Z,-2.1
2019-01-03T01:20:40.582Z,-2.2
2019-01-03T01:21:40.701Z,-2.2
2019-01-03T01:22:41.038Z,-2.3
2019-01-03T01:23:40.933Z,-2.2
2019-01-03T01:24:41.863Z,-2.3
2019-01-03T01:25:41.754Z,-2.3
2019-01-03T01:26:41.641Z,-2.3
2019-01-03T01:27:41.534Z,-2.3
2019-01-03T01:28:41.470Z,-2.3
2019-01-03T01:29:41.354Z,-2.4
2019-01-03T01:30:41.237Z,-2.3
2019-01-03T01:31:41.140Z,-2.4
2019-01-03T01:32:41.425Z,-2.4
2019-01-03T01:33:41.323Z,-2.4
2019-01-03T01:34:41.235Z,-2.4
2019-01-03T01:35:41.145Z,-2.4
2019-01-03T01:36:41.051Z,-2.4
2019-01-03T01:37:41.214Z,-2.4
2019-01-03T01:38:41.115Z,-2.3
2019-01-03T01:39:41.000Z,-2.4
2019-01-03T01:40:40.916Z,-2.4
2019-01-03T01:41:40.814Z,-2.5
2019-01-03T01:42:41.115Z,-2.5
2019-01-03T01:43:41.002Z,-2.5
2019-01-03T01:44:40.900Z,-2.5
2019-01-03T01:45:40.868Z,-2.5
2019-01-03T01:46:40.761Z,-2.5
2019-01-03T01:47:41.690Z,-2.5
2019-01-03T01:48:41.587Z,-2.4
2019-01-03T01:49:41.491Z,-2.4
2019-01-03T01:50:41.416Z,-2.4
2019-01-03T01:51:41.312Z,-2.4
2019-01-03T01:52:41.646Z,-2.3
2019-01-03T01:53:41.544Z,-2.4
2019-01-03T01:54:41.462Z,-2.4
2019-01-03T01:55:41.382Z,-2.5
2019-01-03T01:56:41.308Z,-2.4
2019-01-03T01:57:41.220Z,-2.4
2019-01-03T01:58:41.102Z,-2.4
2019-01-03T01:59:40.992Z,-2.4
2019-01-03T02:00:40.893Z,-2.4
2019-01-03T02:01:40.811Z,-2.4
2019-01-03T02:02:41.124Z,-2.4
2019-01-03T02:03:41.025Z,-2.4
2019-01-03T02:04:40.953Z,-2.4
2019-01-03T02:05:40.842Z,-2.4
2019-01-03T02:06:40.748Z,-2.4
2019-01-03T02:07:40.616Z,-2.4
2019-01-03T02:08:40.516Z,-2.4
2019-01-03T02:09:40.395Z,-2.4
2019-01-03T02:10:40.320Z,-2.4
2019-01-03T02:11:40.266Z,-2.3
2019-01-03T02:12:40.598Z,-2.3
2019-01-03T02:13:40.492Z,-2.4
2019-01-03T02:14:40.374Z,-2.4
2019-01-03T02:15:40.270Z,-2.3
2019-01-03T02:16:40.159Z,-2.3
2019-01-03T02:17:40.082Z,-2.4
2019-01-03T02:18:39.988Z,-2.4
2019-01-03T02:19:39.886Z,-2.4
2019-01-03T02:20:39.795Z,-2.4
2019-01-03T02:21:39.708Z,-2.4
2019-01-03T02:22:40.009Z,-2.5
2019-01-03T02:23:39.955Z,-2.5
2019-01-03T02:24:39.868Z,-2.4
2019-01-03T02:32:38.627Z,-1.7
2019-01-03T02:33:38.530Z,-1.7
2019-01-03T02:34:38.488Z,-1.7
2019-01-03T02:35:38.394Z,-1.7
2019-01-03T02:36:38.309Z,-1.7
2019-01-03T02:37:38.196Z,-1.8
2019-01-03T02:38:38.125Z,-1.8
2019-01-03T02:39:38.036Z,-1.8
2019-01-03T02:40:37.936Z,-1.8
2019-01-03T02:41:37.897Z,-1.9
2019-01-03T02:42:38.441Z,-1.9
2019-01-03T02:43:38.334Z,-2
2019-01-03T02:44:38.244Z,-2
2019-01-03T02:45:38.127Z,-2
2019-01-03T02:46:38.059Z,-2
2019-01-03T02:47:37.981Z,-2
2019-01-03T02:48:37.884Z,-2
2019-01-03T02:49:37.768Z,-2.1
2019-01-03T02:50:37.660Z,-2.1
2019-01-03T02:51:37.571Z,-2.1
2019-01-03T02:52:37.912Z,-2.1
2019-01-03T02:53:41.196Z,-2.2
2019-01-03T02:54:41.109Z,-2.2
2019-01-03T02:55:41.006Z,-2.2
2019-01-03T02:56:40.945Z,-2.2
2019-01-03T02:57:40.830Z,-2.2
2019-01-03T02:58:40.736Z,-2.2
2019-01-03T02:59:40.658Z,-2.3
2019-01-03T03:00:40.564Z,-2.3
2019-01-03T03:01:40.442Z,-2.3
2019-01-03T03:02:40.796Z,-2.3
2019-01-03T03:03:40.686Z,-2.4
2019-01-03T03:04:41.578Z,-2.4
2019-01-03T03:05:41.506Z,-2.3
2019-01-03T03:06:41.422Z,-2.3
2019-01-03T03:07:41.367Z,-2.3
2019-01-03T03:08:41.239Z,-2.3
2019-01-03T03:09:41.130Z,-2.3
2019-01-03T03:10:41.012Z,-2.4
2019-01-03T03:11:40.971Z,-2.4
2019-01-03T03:12:41.346Z,-2.4
2019-01-03T03:13:41.278Z,-2.4
2019-01-03T03:14:41.175Z,-2.4
2019-01-03T03:15:41.061Z,-2.4
2019-01-03T03:16:40.991Z,-2.4
2019-01-03T03:17:40.866Z,-2.4
2019-01-03T03:18:40.787Z,-2.4
2019-01-03T03:19:40.676Z,-2.4
2019-01-03T03:20:40.578Z,-2.3
2019-01-03T03:21:40.481Z,-2.3
2019-01-03T03:22:40.828Z,-2.4
2019-01-03T03:23:40.740Z,-2.4
2019-01-03T03:24:40.669Z,-2.5
2019-01-03T03:25:40.593Z,-2.4
2019-01-03T03:26:40.503Z,-2.4
2019-01-03T03:27:40.395Z,-2.4
2019-01-03T03:28:40.331Z,-2.4
2019-01-03T03:29:40.234Z,-2.4
2019-01-03T03:30:41.190Z,-2.4
2019-01-03T03:31:41.122Z,-2.3
2019-01-03T03:32:41.540Z,-2.4
2019-01-03T03:33:41.688Z,-2.4
2019-01-03T03:34:41.618Z,-2.4
2019-01-03T03:35:41.533Z,-2.3
2019-01-03T03:36:41.463Z,-2.4
2019-01-03T03:37:41.380Z,-2.4
2019-01-03T03:38:41.284Z,-2.4
2019-01-03T03:39:41.201Z,-2.4
2019-01-03T03:40:41.117Z,-2.4
2019-01-03T03:41:41.029Z,-2.4
2019-01-03T03:42:41.420Z,-2.4
2019-01-03T03:43:41.319Z,-2.4
2019-01-03T03:44:41.244Z,-2.4
2019-01-03T03:45:41.163Z,-2.4
2019-01-03T03:46:41.067Z,-2.4
2019-01-03T03:47:40.990Z,-2.4
2019-01-03T03:48:40.877Z,-2.4
2019-01-03T03:49:40.829Z,-2.5
2019-01-03T03:50:40.731Z,-2.5
2019-01-03T03:51:40.659Z,-2.5
2019-01-03T03:52:41.050Z,-2.5
2019-01-03T03:53:40.928Z,-2.5
2019-01-03T03:54:40.835Z,-2.5
2019-01-03T03:55:40.761Z,-2.5
2019-01-03T03:56:40.669Z,-2.4
2019-01-03T03:57:40.623Z,-2.4
2019-01-03T03:58:40.541Z,-2.5
2019-01-03T03:59:40.447Z,-2.5
2019-01-03T04:00:40.359Z,-2.5
2019-01-03T04:01:40.254Z,-2.4
2019-01-03T04:02:40.592Z,-2.4
2019-01-03T04:03:40.558Z,-2.5
2019-01-03T04:12:38.826Z,-1.8
2019-01-03T04:13:38.733Z,-1.8
2019-01-03T04:14:38.668Z,-1.9
2019-01-03T04:15:38.559Z,-1.9
2019-01-03T04:16:38.454Z,-1.9
2019-01-03T04:17:38.360Z,-1.9
2019-01-03T04:18:38.247Z,-2
2019-01-03T04:19:38.387Z,-1.9
2019-01-03T04:20:38.341Z,-2
2019-01-03T04:21:38.232Z,-2
2019-01-03T04:22:38.571Z,-2.1
2019-01-03T04:23:38.514Z,-2.2
2019-01-03T04:24:38.431Z,-2.2
2019-01-03T04:25:38.341Z,-2.2
2019-01-03T04:26:38.291Z,-2.2
2019-01-03T04:27:38.177Z,-2.3
2019-01-03T04:28:39.124Z,-2.3
2019-01-03T04:29:39.033Z,-2.2
2019-01-03T04:30:38.956Z,-2.2
2019-01-03T04:31:38.844Z,-2.3
2019-01-03T04:32:39.254Z,-2.3
2019-01-03T04:33:39.169Z,-2.3
2019-01-03T04:34:39.065Z,-2.3
2019-01-03T04:35:38.971Z,-2.3
2019-01-03T04:36:38.893Z,-2.3
2019-01-03T04:37:38.836Z,-2.3
2019-01-03T04:38:38.716Z,-2.3
2019-01-03T04:39:38.613Z,-2.4
2019-01-03T04:40:38.563Z,-2.4
2019-01-03T04:41:38.461Z,-2.4
2019-01-03T04:42:38.785Z,-2.4
2019-01-03T04:43:41.691Z,-2.5
2019-01-03T04:44:41.592Z,-2.5
2019-01-03T04:45:41.480Z,-2.5
2019-01-03T04:46:41.392Z,-2.5
2019-01-03T04:47:41.327Z,-2.5
2019-01-03T04:48:41.250Z,-2.5
2019-01-03T04:49:41.170Z,-2.5
2019-01-03T04:50:41.085Z,-2.5
2019-01-03T04:51:40.978Z,-2.5
2019-01-03T04:52:42.317Z,-2.5
2019-01-03T04:53:42.237Z,-2.5
2019-01-03T04:54:42.141Z,-2.5
2019-01-03T04:55:42.046Z,-2.5
2019-01-03T04:56:44.853Z,-2.5
2019-01-03T04:57:44.738Z,-2.6
2019-01-03T04:58:44.662Z,-2.6
2019-01-03T04:59:44.575Z,-2.7
2019-01-03T05:00:44.488Z,-2.7
2019-01-03T05:01:44.375Z,-2.6
2019-01-03T05:02:44.723Z,-2.7
2019-01-03T05:03:44.643Z,-2.7
2019-01-03T05:04:44.547Z,-2.7
2019-01-03T05:05:44.429Z,-2.7
2019-01-03T05:06:44.329Z,-2.6
2019-01-03T05:07:44.259Z,-2.7
2019-01-03T05:08:44.156Z,-2.7
2019-01-03T05:09:44.130Z,-2.7
2019-01-03T05:10:44.048Z,-2.7
2019-01-03T05:11:43.963Z,-2.7
2019-01-03T05:12:44.299Z,-2.7
2019-01-03T05:13:44.206Z,-2.7
2019-01-03T05:14:44.113Z,-2.6
2019-01-03T05:15:44.079Z,-2.6
2019-01-03T05:16:43.968Z,-2.7
2019-01-03T05:17:43.907Z,-2.7
2019-01-03T05:18:43.810Z,-2.6
2019-01-03T05:19:43.782Z,-2.6
2019-01-03T05:20:43.679Z,-2.6
2019-01-03T05:21:43.594Z,-2.6
2019-01-03T05:22:43.967Z,-2.6
2019-01-03T05:23:43.863Z,-2.6
2019-01-03T05:24:43.774Z,-2.7
2019-01-03T05:25:43.662Z,-2.6
2019-01-03T05:26:43.594Z,-2.6
2019-01-03T05:27:43.516Z,-2.6
2019-01-03T05:28:43.425Z,-2.6
2019-01-03T05:29:43.339Z,-2.6
2019-01-03T05:30:43.234Z,-2.7
2019-01-03T05:31:43.162Z,-2.7
2019-01-03T05:32:43.553Z,-2.8
2019-01-03T05:33:43.469Z,-2.7
2019-01-03T05:42:41.731Z,-2
2019-01-03T05:43:41.653Z,-2
2019-01-03T05:44:41.544Z,-2
2019-01-03T05:45:42.470Z,-2
2019-01-03T05:46:42.376Z,-2
2019-01-03T05:47:42.332Z,-2
2019-01-03T05:48:42.239Z,-2.1
2019-01-03T05:49:42.150Z,-2.2
2019-01-03T05:50:42.097Z,-2.1
2019-01-03T05:51:41.991Z,-2.2
2019-01-03T05:52:42.311Z,-2.2
2019-01-03T05:53:42.211Z,-2.2
2019-01-03T05:54:42.117Z,-2.3
2019-01-03T05:55:42.012Z,-2.3
2019-01-03T05:56:41.953Z,-2.4
2019-01-03T05:57:41.854Z,-2.4
2019-01-03T05:58:41.755Z,-2.4
2019-01-03T05:59:41.677Z,-2.4
2019-01-03T06:00:41.586Z,-2.4
2019-01-03T06:01:41.524Z,-2.5
2019-01-03T06:02:41.860Z,-2.5
2019-01-03T06:03:41.783Z,-2.5
2019-01-03T06:04:41.977Z,-2.5
2019-01-03T06:05:41.878Z,-2.5
2019-01-03T06:06:41.786Z,-2.5
2019-01-03T06:07:41.708Z,-2.5
2019-01-03T06:08:41.616Z,-2.5
2019-01-03T06:09:41.556Z,-2.5
2019-01-03T06:10:41.446Z,-2.5
2019-01-03T06:11:41.346Z,-2.5
2019-01-03T06:12:41.730Z,-2.6
2019-01-03T06:13:42.646Z,-2.5
2019-01-03T06:14:42.543Z,-2.6
2019-01-03T06:15:42.486Z,-2.6
2019-01-03T06:16:42.362Z,-2.6
2019-01-03T06:17:42.246Z,-2.5
2019-01-03T06:18:42.134Z,-2.6
2019-01-03T06:19:42.018Z,-2.5
2019-01-03T06:20:41.930Z,-2.5
2019-01-03T06:21:41.806Z,-2.5
2019-01-03T06:22:42.120Z,-2.5
2019-01-03T06:23:42.026Z,-2.6
2019-01-03T06:24:41.908Z,-2.6
2019-01-03T06:25:41.820Z,-2.6
2019-01-03T06:26:41.764Z,-2.6
2019-01-03T06:27:41.643Z,-2.6
2019-01-03T06:28:41.541Z,-2.6
2019-01-03T06:29:41.442Z,-2.6
2019-01-03T06:30:41.340Z,-2.6
2019-01-03T06:31:41.235Z,-2.7
2019-01-03T06:32:41.572Z,-2.6
2019-01-03T06:33:41.516Z,-2.6
2019-01-03T06:34:41.416Z,-2.6
2019-01-03T06:35:41.296Z,-2.6
2019-01-03T06:36:41.220Z,-2.6
2019-01-03T06:37:41.145Z,-2.6
2019-01-03T06:38:41.038Z,-2.6
2019-01-03T06:39:40.918Z,-2.6
2019-01-03T06:40:41.044Z,-2.6
2019-01-03T06:41:40.924Z,-2.6
2019-01-03T06:42:41.244Z,-2.6
2019-01-03T06:43:41.144Z,-2.6
2019-01-03T06:44:41.020Z,-2.6
2019-01-03T06:45:40.936Z,-2.6
2019-01-03T06:46:40.820Z,-2.6
2019-01-03T06:47:41.744Z,-2.6
2019-01-03T06:48:41.928Z,-2.6
2019-01-03T06:49:41.844Z,-2.7
2019-01-03T06:50:41.730Z,-2.7
2019-01-03T06:51:44.531Z,-2.8
2019-01-03T06:52:44.900Z,-2.8
2019-01-03T06:53:44.784Z,-2.8
2019-01-03T06:54:44.665Z,-2.8
2019-01-03T06:55:47.125Z,-2.8
2019-01-03T06:56:47.064Z,-2.8
2019-01-03T06:57:47.008Z,-2.7
2019-01-03T06:58:46.894Z,-2.8
2019-01-03T06:59:46.788Z,-2.8
2019-01-03T07:00:46.685Z,-2.8
2019-01-03T07:01:46.582Z,-2.8
2019-01-03T07:02:46.888Z,-2.8
2019-01-03T07:03:46.792Z,-2.7
2019-01-03T07:04:46.692Z,-2.7
2019-01-03T07:05:46.598Z,-2.7
2019-01-03T07:06:46.490Z,-2.7
2019-01-03T07:07:46.397Z,-2.7
2019-01-03T07:08:47.303Z,-2.7
2019-01-03T07:09:47.188Z,-2.7
2019-01-03T07:10:47.103Z,-2.7
2019-01-03T07:11:46.999Z,-2.7
2019-01-03T07:12:47.296Z,-2.7
2019-01-03T07:13:50.299Z,-2.7
2019-01-03T07:14:50.204Z,-2.7
2019-01-03T07:15:50.084Z,-2.6
2019-01-03T07:16:49.974Z,-2.6
2019-01-03T07:17:49.859Z,-2.6
2019-01-03T07:18:49.759Z,-2.6
2019-01-03T07:19:49.658Z,-2.6
2019-01-03T07:20:49.588Z,-2.6
2019-01-03T07:21:49.497Z,-2.6
2019-01-03T07:22:49.842Z,-2.7
2019-01-03T07:23:49.973Z,-2.7
2019-01-03T07:24:49.892Z,-2.7
2019-01-03T07:25:49.823Z,-2.7
2019-01-03T07:26:49.704Z,-2.6
2019-01-03T07:27:52.211Z,-2.7
2019-01-03T07:28:52.141Z,-2.7
2019-01-03T07:29:52.035Z,-2.7
2019-01-03T07:30:52.159Z,-2.8
2019-01-03T07:31:52.054Z,-2.7
2019-01-03T07:32:52.419Z,-2.8
2019-01-03T07:33:52.302Z,-2.7
2019-01-03T07:34:52.194Z,-2.7
2019-01-03T07:42:51.928Z,-1.9
2019-01-03T07:43:51.823Z,-2
2019-01-03T07:44:51.744Z,-2
2019-01-03T07:45:51.652Z,-2.1
2019-01-03T07:46:51.547Z,-2
2019-01-03T07:47:51.444Z,-2.1
2019-01-03T07:48:52.370Z,-2.1
2019-01-03T07:49:52.268Z,-2.1
2019-01-03T07:50:52.184Z,-2.2
2019-01-03T07:51:52.075Z,-2.2
2019-01-03T07:52:52.613Z,-2.2
2019-01-03T07:53:52.513Z,-2.3
2019-01-03T07:54:52.407Z,-2.3
2019-01-03T07:55:52.289Z,-2.3
2019-01-03T07:56:52.209Z,-2.3
2019-01-03T07:57:52.092Z,-2.3
2019-01-03T07:58:52.228Z,-2.3
2019-01-03T07:59:52.127Z,-2.3
2019-01-03T08:00:52.016Z,-2.3
2019-01-03T08:01:51.919Z,-2.4
2019-01-03T08:02:52.258Z,-2.4
2019-01-03T08:03:52.366Z,-2.4
2019-01-03T08:04:52.264Z,-2.5
2019-01-03T08:05:55.555Z,-2.5
2019-01-03T08:07:00.397Z,-2.5
2019-01-03T08:08:00.311Z,-2.5
2019-01-03T08:09:03.154Z,-2.4
2019-01-03T08:10:09.587Z,-2.5
2019-01-03T08:11:09.493Z,-2.5
2019-01-03T08:12:09.415Z,-2.5
2019-01-03T08:13:12.393Z,-2.5
2019-01-03T08:14:12.275Z,-2.5
2019-01-03T08:15:12.183Z,-2.5
2019-01-03T08:16:12.073Z,-2.5
2019-01-03T08:17:11.987Z,-2.5
2019-01-03T08:18:11.879Z,-2.5
2019-01-03T08:19:11.807Z,-2.5
2019-01-03T08:20:11.691Z,-2.4
2019-01-03T08:21:11.635Z,-2.4
2019-01-03T08:22:11.529Z,-2.5
2019-01-03T08:23:14.818Z,-2.4
2019-01-03T08:24:14.702Z,-2.5
2019-01-03T08:32:12.751Z,-1.8
2019-01-03T08:33:13.087Z,-1.8
2019-01-03T08:34:13.022Z,-1.8
2019-01-03T08:35:15.779Z,-1.8
2019-01-03T08:36:15.929Z,-1.9
2019-01-03T08:37:15.807Z,-2.3
2019-01-03T08:38:15.711Z,-2.7
2019-01-03T08:39:15.622Z,-2.6
2019-01-03T08:40:15.503Z,-2.5
2019-01-03T08:41:15.425Z,-2.5
2019-01-03T08:42:15.323Z,-2.4
2019-01-03T08:43:15.622Z,-2.5
2019-01-03T08:44:15.521Z,-2.6
2019-01-03T08:45:15.454Z,-2.5
2019-01-03T08:46:15.377Z,-2.5
2019-01-03T08:47:15.277Z,-2.4
2019-01-03T08:48:15.199Z,-2.4
2019-01-03T08:49:15.125Z,-2.5
2019-01-03T08:50:15.027Z,-2.5
2019-01-03T08:51:14.964Z,-2.5
2019-01-03T08:52:14.859Z,-2.6
2019-01-03T08:53:16.173Z,-2.6
2019-01-03T08:54:16.087Z,-2.5
2019-01-03T08:55:15.986Z,-2.5
2019-01-03T08:56:15.899Z,-2.5
2019-01-03T08:57:15.805Z,-2.5
2019-01-03T08:58:16.764Z,-2.5
2019-01-03T08:59:16.677Z,-2.4
2019-01-03T09:00:16.577Z,-2.4
2019-01-03T09:01:16.463Z,-2.4
2019-01-03T09:02:16.384Z,-2.4
2019-01-03T09:03:16.667Z,-2.4
2019-01-03T09:04:17.566Z,-2.3
2019-01-03T09:05:17.452Z,-2.3
2019-01-03T09:06:17.343Z,-2.3
2019-01-03T09:07:17.259Z,-2.3
2019-01-03T09:08:17.162Z,-2.3
2019-01-03T09:09:19.633Z,-2.2
2019-01-03T09:10:19.519Z,-2.2
2019-01-03T09:11:19.424Z,-2.3
2019-01-03T09:12:19.321Z,-2.3
2019-01-03T09:13:19.665Z,-2.4
2019-01-03T09:14:19.563Z,-2.3
2019-01-03T09:15:19.459Z,-2.3
2019-01-03T09:16:19.345Z,-2.3
2019-01-03T09:17:19.241Z,-2.3
2019-01-03T09:18:19.141Z,-2.3
2019-01-03T09:19:19.105Z,-2.3
2019-01-03T09:20:18.993Z,-2.3
2019-01-03T09:21:18.892Z,-2.2
2019-01-03T09:22:18.772Z,-2.2
2019-01-03T09:23:19.111Z,-2.2
2019-01-03T09:24:19.008Z,-2.2
2019-01-03T09:25:18.915Z,-2.1
2019-01-03T09:26:18.819Z,-2.1
2019-01-03T09:27:18.720Z,-2.1
2019-01-03T09:28:18.659Z,-2.1
2019-01-03T09:29:21.435Z,-2.1
2019-01-03T09:30:21.330Z,-2.1
2019-01-03T09:31:21.221Z,-2.1
2019-01-03T09:32:21.105Z,-2.1
2019-01-03T09:33:21.452Z,-2.1
2019-01-03T09:34:21.361Z,-2.1
2019-01-03T09:35:21.271Z,-2.1
2019-01-03T09:36:21.157Z,-2.1
2019-01-03T09:37:27.350Z,-2.1
2019-01-03T09:38:27.291Z,-2
2019-01-03T09:39:27.175Z,-2
2019-01-03T09:40:27.579Z,-2
2019-01-03T09:41:27.470Z,-2
2019-01-03T09:42:27.369Z,-2
2019-01-03T09:43:27.749Z,-2
2019-01-03T09:44:27.645Z,-2
2019-01-03T09:45:27.539Z,-2.1
2019-01-03T09:46:27.442Z,-2
2019-01-03T09:47:27.318Z,-2
2019-01-03T09:48:27.220Z,-2
2019-01-03T09:49:27.138Z,-2
2019-01-03T09:50:27.023Z,-2.1
2019-01-03T09:51:28.119Z,-2.1
2019-01-03T09:52:39.860Z,-2
2019-01-03T09:53:40.171Z,-2
2019-01-03T09:54:40.086Z,-1.9
2019-01-03T09:55:39.996Z,-2
2019-01-03T09:56:39.899Z,-1.9
2019-01-03T10:03:38.622Z,-1.5
2019-01-03T10:04:38.520Z,-1.5
2019-01-03T10:05:38.452Z,-1.5
2019-01-03T10:06:38.368Z,-1.5
2019-01-03T10:07:38.260Z,-1.5
2019-01-03T10:08:38.140Z,-1.5
2019-01-03T10:09:38.026Z,-1.5
2019-01-03T10:10:37.956Z,-1.5
2019-01-03T10:11:37.859Z,-1.6
2019-01-03T10:12:37.767Z,-1.6
2019-01-03T10:13:38.073Z,-1.6
2019-01-03T10:14:38.001Z,-1.6
2019-01-03T10:15:37.922Z,-1.7
2019-01-03T10:16:37.847Z,-1.7
2019-01-03T10:23:37.878Z,-1.2
2019-01-03T10:24:38.032Z,-1.2
2019-01-03T10:25:37.930Z,-1.2
2019-01-03T10:26:37.830Z,-1.2
2019-01-03T10:27:37.739Z,-1.1
2019-01-03T10:28:37.924Z,-1.2
2019-01-03T10:29:37.837Z,-1.2
2019-01-03T10:30:37.778Z,-1.3
2019-01-03T10:31:37.678Z,-1.3
2019-01-03T10:32:39.220Z,-1.4
2019-01-03T10:33:39.529Z,-1.3
2019-01-03T10:34:39.526Z,-1.3
2019-01-03T10:35:39.460Z,-1.4
2019-01-03T10:36:39.348Z,-1.4
2019-01-03T10:37:39.252Z,-1.4
2019-01-03T10:38:39.157Z,-1.4
2019-01-03T10:39:39.038Z,-1.5
2019-01-03T10:40:38.946Z,-1.5
2019-01-03T10:41:38.848Z,-1.5
2019-01-03T10:42:38.755Z,-1.5
2019-01-03T10:43:39.087Z,-1.5
2019-01-03T10:44:38.989Z,-1.5
2019-01-03T10:45:38.904Z,-1.5
2019-01-03T10:46:38.803Z,-1.4
2019-01-03T10:47:38.696Z,-1.4
2019-01-03T10:48:38.609Z,-1.4
2019-01-03T10:49:38.500Z,-1.4
2019-01-03T10:50:38.418Z,-1.4
2019-01-03T10:51:38.330Z,-1.5
2019-01-03T10:52:38.228Z,-1.4
2019-01-03T10:53:41.112Z,-1.5
2019-01-03T10:54:40.994Z,-1.4
2019-01-03T10:55:40.934Z,-1.4
2019-01-03T10:56:40.874Z,-1.3
2019-01-03T10:57:40.768Z,-1.3
2019-01-03T10:58:40.740Z,-1.2
2019-01-03T10:59:40.638Z,-1.2
2019-01-03T11:00:40.554Z,-1.1
2019-01-03T11:01:40.460Z,-1.1
2019-01-03T11:02:40.628Z,-1.1
2019-01-03T11:03:43.702Z,-1
2019-01-03T11:04:43.600Z,-1
2019-01-03T11:05:43.516Z,-1
2019-01-03T11:06:43.410Z,-0.9
2019-01-03T11:07:43.319Z,-0.9
2019-01-03T11:08:43.192Z,-0.8
2019-01-03T11:09:43.087Z,-0.8
2019-01-03T11:10:43.020Z,-0.7
2019-01-03T11:11:42.926Z,-0.8
2019-01-03T11:12:42.834Z,-0.8
2019-01-03T11:13:43.234Z,-0.7
2019-01-03T11:14:43.144Z,-0.8
2019-01-03T11:15:44.264Z,-0.8
2019-01-03T11:16:44.189Z,-0.8
2019-01-03T11:17:44.085Z,-0.8
2019-01-03T11:18:44.018Z,-0.8
2019-01-03T11:19:43.901Z,-0.9
2019-01-03T11:20:43.798Z,-0.8
2019-01-03T11:21:43.978Z,-0.8
2019-01-03T11:22:43.898Z,-0.8
2019-01-03T11:23:44.237Z,-0.8
2019-01-03T11:24:44.124Z,-0.9
2019-01-03T11:25:44.046Z,-0.9
2019-01-03T11:26:43.936Z,-0.9
2019-01-03T11:27:43.864Z,-0.8
2019-01-03T11:28:44.033Z,-0.8
2019-01-03T11:29:44.218Z,-0.8
2019-01-03T11:30:44.469Z,-0.8
2019-01-03T11:31:44.368Z,-0.8
2019-01-03T11:32:44.273Z,-0.8
2019-01-03T11:33:44.622Z,-0.7
2019-01-03T11:34:44.540Z,-0.7
2019-01-03T11:35:44.453Z,-0.8
2019-01-03T11:36:44.352Z,-0.8
2019-01-03T11:37:44.274Z,-0.7
2019-01-03T11:40:43.904Z,-0.4
2019-01-03T11:41:43.799Z,-0.4
2019-01-03T11:42:43.707Z,-0.4
2019-01-03T11:43:44.045Z,-0.4
2019-01-03T11:44:43.938Z,-0.4
2019-01-03T11:45:43.861Z,-0.3
2019-01-03T11:46:43.799Z,-0.4
2019-01-03T11:47:43.742Z,-0.4
2019-01-03T11:48:43.647Z,-0.4
2019-01-03T11:49:43.567Z,-0.6
2019-01-03T11:50:43.471Z,-0.5
2019-01-03T11:51:43.389Z,-0.5
2019-01-03T11:52:43.312Z,-0.4
2019-01-03T11:53:43.644Z,-0.4
2019-01-03T11:54:43.551Z,-0.5
2019-01-03T11:55:43.465Z,-0.5
2019-01-03T11:56:43.409Z,-0.5
2019-01-03T11:57:43.334Z,-0.5
2019-01-03T11:58:43.227Z,-0.4
2019-01-03T11:59:44.124Z,-0.4
2019-01-03T12:00:44.024Z,-0.3
2019-01-03T12:01:43.993Z,-0.3
2019-01-03T12:03:44.286Z,-0.2
2019-01-03T12:04:44.175Z,-0.2
2019-01-03T12:05:44.077Z,-0.2
2019-01-03T12:06:43.988Z,-0.2
2019-01-03T12:07:43.900Z,-0.2
2019-01-03T12:08:43.785Z,-0.2
2019-01-03T12:09:43.678Z,-0.2
2019-01-03T12:10:43.585Z,-0.3
2019-01-03T12:11:43.489Z,-0.3
2019-01-03T12:12:43.391Z,-0.3
2019-01-03T12:13:43.722Z,-0.4
2019-01-03T12:14:43.625Z,-0.4
2019-01-03T12:15:43.523Z,-0.4
2019-01-03T12:16:43.421Z,-0.4
2019-01-03T12:17:43.331Z,-0.5
2019-01-03T12:18:43.231Z,-0.5
2019-01-03T12:19:43.177Z,-0.5
2019-01-03T12:20:43.068Z,-0.6
2019-01-03T12:21:42.952Z,-0.7
2019-01-03T12:22:42.845Z,-0.8
2019-01-03T12:23:43.190Z,-0.9
2019-01-03T12:24:43.081Z,-0.8
2019-01-03T12:25:42.989Z,-0.8
2019-01-03T12:26:42.909Z,-0.8
2019-01-03T12:27:42.811Z,-0.8
2019-01-03T12:28:42.741Z,-0.7
2019-01-03T12:29:42.669Z,-0.7
2019-01-03T12:33:42.201Z,-0.4
2019-01-03T12:34:42.115Z,-0.4
2019-01-03T12:35:41.995Z,-0.4
2019-01-03T12:36:41.917Z,-0.4
2019-01-03T12:37:41.790Z,-0.5
2019-01-03T12:38:41.738Z,-0.4
2019-01-03T12:39:41.675Z,-0.5
2019-01-03T12:40:41.597Z,-0.6
2019-01-03T12:41:41.561Z,-0.7
2019-01-03T12:42:41.447Z,-0.7
2019-01-03T12:43:42.143Z,-0.7
2019-01-03T12:44:42.286Z,-0.9
2019-01-03T12:45:42.185Z,-0.9
2019-01-03T12:47:41.815Z,-0.8
2019-01-03T12:49:45.875Z,-0.6
2019-01-03T12:50:45.760Z,-0.5
2019-01-03T12:51:45.677Z,-0.5
2019-01-03T12:54:45.732Z,-0.5
2019-01-03T12:56:45.952Z,-0.5
2019-01-03T12:58:45.773Z,-0.6
2019-01-03T13:03:45.295Z,-0.6
2019-01-03T13:04:46.246Z,-0.6
2019-01-03T13:05:46.159Z,-0.5
2019-01-03T13:06:46.079Z,-0.6
2019-01-03T13:07:46.204Z,-0.6
2019-01-03T13:08:46.345Z,-0.5
2019-01-03T13:09:46.752Z,-0.6
2019-01-03T13:10:47.480Z,-0.6
2019-01-03T13:11:47.750Z,-0.5
2019-01-03T13:12:49.179Z,-0.6
2019-01-03T13:13:50.285Z,-0.6
2019-01-03T13:14:50.688Z,-0.6
2019-01-03T13:15:50.753Z,-0.7
2019-01-03T13:16:50.651Z,-0.7
2019-01-03T13:17:50.763Z,-0.6
2019-01-03T13:18:50.664Z,-0.5
2019-01-03T13:20:50.299Z,-0.5
2019-01-03T13:22:50.013Z,-0.5
2019-01-03T13:23:50.619Z,-0.4
2019-01-03T13:24:50.549Z,-0.4
2019-01-03T13:25:50.469Z,-0.5
2019-01-03T13:26:51.041Z,-0.5
2019-01-03T13:27:51.405Z,-0.5
2019-01-03T13:28:51.608Z,-0.5
2019-01-03T13:29:51.772Z,-0.5
2019-01-03T13:30:54.694Z,-0.6
2019-01-03T13:31:54.775Z,-0.7
2019-01-03T13:32:55.167Z,-0.7
2019-01-03T13:33:55.854Z,-0.7
2019-01-03T13:34:55.747Z,-0.8
2019-01-03T13:35:55.695Z,-0.8
2019-01-03T13:36:55.587Z,-0.8
2019-01-03T13:37:55.495Z,-0.8
2019-01-03T13:38:55.665Z,-0.8
2019-01-03T13:39:55.538Z,-0.9
2019-01-03T13:40:55.471Z,-1
2019-01-03T13:41:55.868Z,-1
2019-01-03T13:42:56.089Z,-1
2019-01-03T13:43:57.015Z,-1
2019-01-03T13:45:00.195Z,-1
2019-01-03T13:46:00.129Z,-0.9
2019-01-03T13:47:03.297Z,-1
2019-01-03T13:48:03.358Z,-0.9
2019-01-03T13:50:03.193Z,-0.7
2019-01-03T13:51:03.103Z,-0.6
2019-01-03T13:53:06.821Z,-0.5
2019-01-03T13:54:07.468Z,-0.4
2019-01-03T13:55:07.412Z,-0.4
2019-01-03T13:56:07.302Z,-0.4
2019-01-03T13:57:07.234Z,-0.5
2019-01-03T13:58:07.343Z,-0.6
2019-01-03T13:59:07.307Z,-0.6
2019-01-03T14:00:07.215Z,-0.7
2019-01-03T14:01:07.119Z,-0.7
2019-01-03T14:02:10.052Z,-0.7
2019-01-03T14:03:10.004Z,-0.7
2019-01-03T14:04:10.318Z,-0.8
2019-01-03T14:05:10.219Z,-0.8
2019-01-03T14:06:10.093Z,-0.9
2019-01-03T14:07:09.997Z,-0.9
2019-01-03T14:08:09.934Z,-0.9
2019-01-03T14:09:09.826Z,-0.9
2019-01-03T14:10:11.177Z,-1
2019-01-03T14:11:11.076Z,-1.1
2019-01-03T14:12:11.033Z,-1.1
2019-01-03T14:13:10.952Z,-1.1
2019-01-03T14:14:11.280Z,-1.2
2019-01-03T14:15:11.183Z,-1.2
2019-01-03T14:16:11.537Z,-1.2
2019-01-03T14:17:11.491Z,-1.2
2019-01-03T14:18:11.399Z,-1.2
2019-01-03T14:19:11.318Z,-1.2
2019-01-03T14:20:11.216Z,-1.1
2019-01-03T14:21:11.128Z,-1.2
2019-01-03T14:22:11.032Z,-1.2
2019-01-03T14:23:10.948Z,-1.3
2019-01-03T14:24:11.521Z,-1.3
2019-01-03T14:25:11.418Z,-1.3
2019-01-03T14:26:11.324Z,-1.3
2019-01-03T14:29:10.702Z,-1
2019-01-03T14:36:09.467Z,-0.6
2019-01-03T14:40:08.556Z,-0.7
2019-01-03T14:41:08.454Z,-0.7
2019-01-03T14:44:08.266Z,-0.5
2019-01-03T14:45:08.171Z,-0.6
2019-01-03T14:46:08.050Z,-0.6
2019-01-03T14:47:07.980Z,-0.7
2019-01-03T14:48:07.853Z,-0.7
2019-01-03T14:49:07.768Z,-0.8
2019-01-03T14:50:07.674Z,-0.9
2019-01-03T14:51:07.565Z,-0.8
2019-01-03T14:52:07.464Z,-0.8
2019-01-03T14:53:07.373Z,-0.9
2019-01-03T14:54:07.706Z,-1
2019-01-03T14:55:07.617Z,-1
2019-01-03T14:56:07.520Z,-1
2019-01-03T14:57:07.450Z,-1.1
2019-01-03T14:58:07.346Z,-1.1
2019-01-03T14:59:07.218Z,-1.2
2019-01-03T15:00:07.129Z,-1.2
2019-01-03T15:01:07.022Z,-1.2